Terminal Aerodrome Forecast
Issued by NWS

Home | Current Version | Previous Version | Text Only | Print | Product List | Glossary On
Versions: 1 2 3 4 5 6 7 8 9 10 11 12 13 14 15
698
FTUS43 KBIS 190535
TAFMOT
TAF
KMOT 190535Z 1906/2006 28011KT P6SM OVC100 WS020/29045KT
     FM191100 26011KT P6SM BKN080 OVC100
     FM191600 26011KT P6SM FEW110 SCT180
     FM191900 25011KT P6SM FEW200=

USA.gov is the U.S. government's official web portal to all federal, state and local government web resources and services.